createdAt,value
2018-05-26T00:01:08.974Z,20.00
2018-05-26T00:03:37.794Z,20.07
2018-05-26T00:06:06.630Z,19.85
2018-05-26T00:08:35.478Z,19.78
2018-05-26T00:11:04.305Z,19.96
2018-05-26T00:13:33.130Z,19.77
2018-05-26T00:16:01.955Z,19.67
2018-05-26T00:18:30.815Z,19.59
2018-05-26T00:20:59.648Z,19.54
2018-05-26T00:23:28.496Z,19.49
2018-05-26T00:25:57.376Z,19.74
2018-05-26T00:28:26.217Z,19.82
2018-05-26T00:30:55.065Z,19.65
2018-05-26T00:33:23.915Z,19.85
2018-05-26T00:35:52.833Z,19.89
2018-05-26T00:38:21.649Z,19.66
2018-05-26T00:40:50.548Z,19.60
2018-05-26T00:43:19.390Z,19.55
2018-05-26T00:45:48.305Z,19.56
2018-05-26T00:48:17.196Z,19.53
2018-05-26T00:50:46.023Z,19.49
2018-05-26T00:53:14.893Z,19.46
2018-05-26T00:55:43.750Z,19.45
2018-05-26T00:58:12.605Z,19.42
2018-05-26T01:00:41.440Z,19.41
2018-05-26T01:03:10.283Z,19.38
2018-05-26T01:05:39.123Z,19.56
2018-05-26T01:08:08.006Z,19.34
2018-05-26T01:10:36.817Z,19.33
2018-05-26T01:13:05.691Z,19.34
2018-05-26T01:15:34.529Z,19.34
2018-05-26T01:18:03.391Z,19.28
2018-05-26T01:20:34.092Z,19.24
2018-05-26T01:23:02.926Z,19.23
2018-05-26T01:25:31.780Z,19.20
2018-05-26T01:28:00.605Z,19.14
2018-05-26T01:30:29.450Z,19.14
2018-05-26T01:32:58.267Z,19.09
2018-05-26T01:35:27.146Z,19.05
2018-05-26T01:37:55.977Z,19.04
2018-05-26T01:40:24.831Z,19.32
2018-05-26T01:42:53.667Z,19.15
2018-05-26T01:45:22.493Z,19.14
2018-05-26T01:47:51.326Z,19.16
2018-05-26T01:50:20.223Z,19.37
2018-05-26T01:52:49.102Z,19.18
2018-05-26T01:55:17.958Z,19.19
2018-05-26T01:57:46.774Z,19.16
2018-05-26T02:00:15.607Z,19.14
2018-05-26T02:02:44.453Z,19.13
2018-05-26T02:05:13.329Z,19.12
2018-05-26T02:07:42.270Z,19.07
2018-05-26T02:10:11.108Z,19.02
2018-05-26T02:12:39.970Z,19.01
2018-05-26T02:15:08.837Z,18.96
2018-05-26T02:17:37.667Z,18.95
2018-05-26T02:20:06.512Z,18.92
2018-05-26T02:22:35.383Z,18.87
2018-05-26T02:25:04.320Z,18.83
2018-05-26T02:27:33.096Z,18.84
2018-05-26T02:30:01.929Z,18.83
2018-05-26T02:32:30.769Z,18.85
2018-05-26T02:34:59.631Z,18.80
2018-05-26T02:37:28.512Z,18.79
2018-05-26T02:39:57.386Z,18.74
2018-05-26T02:42:26.249Z,18.77
2018-05-26T02:44:55.085Z,19.00
2018-05-26T02:47:23.947Z,18.84
2018-05-26T02:49:52.781Z,18.83
2018-05-26T02:52:21.701Z,19.08
2018-05-26T02:54:50.546Z,18.88
2018-05-26T02:57:19.395Z,18.84
2018-05-26T02:59:48.241Z,18.78
2018-05-26T03:02:17.092Z,18.78
2018-05-26T03:05:04.135Z,18.73
2018-05-26T03:07:50.433Z,18.68
2018-05-26T03:10:36.909Z,18.67
2018-05-26T03:13:23.658Z,18.62
2018-05-26T03:15:52.492Z,18.80
2018-05-26T03:18:21.332Z,18.65
2018-05-26T03:20:50.194Z,18.64
2018-05-26T03:23:19.016Z,18.58
2018-05-26T03:25:47.875Z,18.48
2018-05-26T03:28:16.709Z,18.47
2018-05-26T03:30:45.584Z,18.40
2018-05-26T03:33:14.412Z,18.37
2018-05-26T03:35:43.282Z,18.34
2018-05-26T03:38:12.103Z,18.31
2018-05-26T03:40:40.955Z,18.34
2018-05-26T03:43:09.802Z,18.32
2018-05-26T03:45:38.640Z,18.36
2018-05-26T03:48:07.453Z,18.33
2018-05-26T03:50:36.324Z,18.34
2018-05-26T03:53:05.204Z,18.35
2018-05-26T03:56:14.775Z,18.27
2018-05-26T03:59:21.326Z,18.27
2018-05-26T04:01:50.179Z,18.25
2018-05-26T04:04:19.023Z,18.26
2018-05-26T04:06:47.905Z,18.26
2018-05-26T04:09:16.728Z,18.26
2018-05-26T04:11:45.575Z,18.28
2018-05-26T04:14:14.421Z,18.55
2018-05-26T04:16:43.253Z,18.33
2018-05-26T04:19:12.099Z,18.33
2018-05-26T04:21:40.950Z,18.39
2018-05-26T04:24:09.776Z,18.40
2018-05-26T04:26:38.620Z,18.39
2018-05-26T04:29:07.468Z,18.63
2018-05-26T04:31:36.286Z,18.51
2018-05-26T04:34:05.150Z,18.52
2018-05-26T04:36:34.008Z,18.50
2018-05-26T04:39:02.879Z,18.50
2018-05-26T04:41:31.721Z,18.51
2018-05-26T04:44:00.526Z,18.58
2018-05-26T04:46:29.409Z,18.56
2018-05-26T04:48:58.257Z,18.56
2018-05-26T04:51:27.077Z,18.53
2018-05-26T04:53:55.897Z,18.85
2018-05-26T04:56:24.771Z,19.05
2018-05-26T04:58:53.625Z,18.88
2018-05-26T05:01:22.461Z,18.90
2018-05-26T05:03:51.290Z,19.23
2018-05-26T05:06:20.151Z,19.13
2018-05-26T05:08:49.000Z,19.14
2018-05-26T05:11:17.892Z,19.21
2018-05-26T05:13:46.716Z,19.29
2018-05-26T05:16:15.571Z,19.34
2018-05-26T05:18:44.416Z,19.38
2018-05-26T05:21:13.231Z,19.45
2018-05-26T05:23:42.123Z,19.45
2018-05-26T05:26:10.949Z,19.72
2018-05-26T05:28:39.849Z,19.65
2018-05-26T05:31:08.673Z,19.74
2018-05-26T05:33:37.514Z,19.81
2018-05-26T05:36:06.408Z,19.86
2018-05-26T05:38:35.267Z,19.96
2018-05-26T05:41:04.116Z,20.04
2018-05-26T05:43:32.954Z,20.15
2018-05-26T05:46:01.810Z,20.26
2018-05-26T05:48:30.683Z,20.41
2018-05-26T05:50:59.503Z,20.58
2018-05-26T05:53:31.922Z,20.80
2018-05-26T05:56:00.751Z,21.08
2018-05-26T05:58:29.616Z,21.32
2018-05-26T06:00:58.456Z,21.68
2018-05-26T06:03:27.292Z,22.01
2018-05-26T06:05:56.202Z,22.34
2018-05-26T06:08:24.998Z,22.74
2018-05-26T06:10:53.844Z,23.17
2018-05-26T06:13:22.681Z,23.56
2018-05-26T06:15:51.533Z,23.93
2018-05-26T06:18:20.383Z,24.59
2018-05-26T06:20:49.193Z,26.12
2018-05-26T06:23:18.045Z,27.61
2018-05-26T06:25:46.871Z,29.12
2018-05-26T06:28:15.708Z,30.17
2018-05-26T06:30:44.532Z,30.97
2018-05-26T06:33:13.364Z,31.32
2018-05-26T06:35:45.195Z,32.14
2018-05-26T06:38:14.011Z,32.66
2018-05-26T06:40:42.860Z,33.20
2018-05-26T06:43:11.685Z,33.40
2018-05-26T06:45:40.545Z,34.07
2018-05-26T06:48:09.379Z,34.14
2018-05-26T06:50:38.231Z,34.07
2018-05-26T06:53:07.069Z,34.47
2018-05-26T06:55:35.923Z,34.71
2018-05-26T06:58:04.805Z,34.42
2018-05-26T07:00:33.664Z,34.66
2018-05-26T07:03:02.475Z,34.84
2018-05-26T07:05:31.333Z,35.55
2018-05-26T07:08:00.178Z,36.03
2018-05-26T07:10:29.040Z,36.17
2018-05-26T07:12:57.910Z,35.68
2018-05-26T07:15:26.746Z,36.09
2018-05-26T07:17:55.588Z,35.80
2018-05-26T07:20:24.452Z,36.33
2018-05-26T07:22:53.293Z,37.00
2018-05-26T07:25:22.143Z,36.65
2018-05-26T07:27:51.039Z,36.36
2018-05-26T07:30:19.820Z,36.89
2018-05-26T07:32:48.658Z,37.03
2018-05-26T07:35:17.502Z,37.46
2018-05-26T07:37:46.342Z,37.20
2018-05-26T07:40:15.225Z,37.43
2018-05-26T07:42:44.086Z,37.70
2018-05-26T07:45:12.933Z,37.50
2018-05-26T07:47:41.782Z,38.00
2018-05-26T07:50:10.626Z,37.57
2018-05-26T07:52:39.473Z,38.18
2018-05-26T07:55:08.346Z,37.86
2018-05-26T07:57:37.218Z,38.13
2018-05-26T08:00:06.107Z,38.02
2018-05-26T08:02:34.902Z,36.93
2018-05-26T08:05:03.760Z,36.79
2018-05-26T08:07:32.596Z,37.42
2018-05-26T08:10:01.439Z,37.72
2018-05-26T08:12:30.283Z,38.04
2018-05-26T08:14:59.129Z,37.35
2018-05-26T08:17:27.989Z,38.07
2018-05-26T08:19:56.793Z,38.34
2018-05-26T08:22:25.650Z,38.22
2018-05-26T08:24:54.496Z,38.59
2018-05-26T08:27:23.346Z,38.92
2018-05-26T08:29:52.194Z,38.25
2018-05-26T08:32:21.046Z,38.99
2018-05-26T08:34:49.890Z,38.57
2018-05-26T08:37:18.727Z,39.19
2018-05-26T08:39:47.563Z,39.05
2018-05-26T08:42:16.394Z,39.20
2018-05-26T08:44:45.271Z,39.10
2018-05-26T08:47:14.109Z,38.83
2018-05-26T08:49:42.936Z,38.75
2018-05-26T08:52:11.802Z,39.54
2018-05-26T08:54:40.654Z,39.61
2018-05-26T08:57:09.478Z,39.89
2018-05-26T08:59:38.592Z,39.72
2018-05-26T09:02:07.444Z,39.62
2018-05-26T09:04:36.279Z,39.51
2018-05-26T09:07:05.152Z,39.12
2018-05-26T09:09:36.849Z,39.59
2018-05-26T09:12:05.683Z,39.62
2018-05-26T09:14:34.498Z,39.57
2018-05-26T09:17:03.379Z,39.96
2018-05-26T09:19:32.223Z,40.01
2018-05-26T09:22:01.096Z,38.74
2018-05-26T09:24:29.901Z,39.43
2018-05-26T09:26:58.717Z,39.57
2018-05-26T09:29:27.571Z,39.54
2018-05-26T09:31:56.417Z,39.07
2018-05-26T09:34:25.260Z,38.67
2018-05-26T09:36:54.090Z,39.02
2018-05-26T09:39:23.257Z,39.37
2018-05-26T09:41:52.630Z,39.16
2018-05-26T09:44:22.209Z,39.62
2018-05-26T09:46:53.717Z,39.90
2018-05-26T09:49:25.578Z,38.73
2018-05-26T09:51:54.732Z,38.72
2018-05-26T09:54:23.870Z,39.03
2018-05-26T09:56:52.920Z,39.87
2018-05-26T09:59:22.203Z,39.14
2018-05-26T10:01:53.745Z,38.58
2018-05-26T10:04:25.888Z,38.17
2018-05-26T10:06:55.094Z,38.54
2018-05-26T10:09:27.145Z,39.38
2018-05-26T10:11:56.731Z,38.88
2018-05-26T10:14:28.717Z,38.43
2018-05-26T10:16:55.499Z,39.03
2018-05-26T10:19:24.768Z,38.95
2018-05-26T10:21:56.172Z,38.62
2018-05-26T10:24:25.332Z,38.97
2018-05-26T10:26:57.677Z,39.26
2018-05-26T10:29:29.745Z,39.19
2018-05-26T10:31:59.244Z,38.54
2018-05-26T10:34:28.368Z,38.87
2018-05-26T10:36:57.853Z,39.51
2018-05-26T10:39:27.242Z,39.47
2018-05-26T10:41:56.349Z,39.58
2018-05-26T10:44:25.507Z,40.00
2018-05-26T10:46:54.585Z,39.68
2018-05-26T10:49:23.916Z,39.52
2018-05-26T10:51:55.269Z,39.39
2018-05-26T10:54:24.406Z,38.74
2018-05-26T10:56:56.034Z,39.92
2018-05-26T10:59:25.057Z,38.62
2018-05-26T11:01:54.539Z,39.86
2018-05-26T11:04:23.625Z,39.38
2018-05-26T11:06:54.447Z,39.16
2018-05-26T11:09:26.568Z,38.61
2018-05-26T11:11:56.172Z,38.15
2018-05-26T11:14:31.606Z,38.54
2018-05-26T11:17:00.949Z,39.31
2018-05-26T11:19:39.466Z,38.34
2018-05-26T11:22:09.013Z,38.59
2018-05-26T11:24:38.367Z,38.78
2018-05-26T11:27:07.386Z,38.66
2018-05-26T11:29:36.403Z,38.38
2018-05-26T11:32:08.133Z,38.31
2018-05-26T11:34:37.801Z,38.12
2018-05-26T11:37:06.988Z,38.28
2018-05-26T11:39:36.083Z,38.46
2018-05-26T11:42:05.100Z,38.33
2018-05-26T11:44:36.922Z,38.17
2018-05-26T11:47:05.994Z,37.37
2018-05-26T11:49:35.138Z,37.42
2018-05-26T11:52:06.916Z,37.30
2018-05-26T11:54:36.195Z,37.58
2018-05-26T11:57:05.208Z,37.78
2018-05-26T11:59:34.665Z,37.33
2018-05-26T12:02:05.812Z,36.83
2018-05-26T12:04:35.214Z,36.36
2018-05-26T12:07:06.816Z,35.93
2018-05-26T12:09:35.929Z,36.01
2018-05-26T12:12:04.991Z,35.91
2018-05-26T12:14:37.391Z,35.49
2018-05-26T12:17:06.430Z,35.18
2018-05-26T12:19:35.692Z,34.95
2018-05-26T12:22:05.415Z,34.74
2018-05-26T12:24:34.524Z,34.51
2018-05-26T12:27:03.668Z,34.31
2018-05-26T12:29:33.271Z,34.36
2018-05-26T12:32:02.523Z,34.16
2018-05-26T12:34:33.877Z,34.13
2018-05-26T12:37:02.981Z,33.85
2018-05-26T12:39:33.242Z,34.03
2018-05-26T12:42:05.688Z,34.06
2018-05-26T12:44:35.575Z,34.11
2018-05-26T12:47:05.064Z,34.11
2018-05-26T12:49:34.496Z,33.89
2018-05-26T12:52:03.651Z,34.04
2018-05-26T12:54:37.632Z,34.07
2018-05-26T12:57:09.441Z,34.26
2018-05-26T12:59:39.151Z,33.98
2018-05-26T13:02:08.243Z,34.02
2018-05-26T13:04:37.334Z,34.13
2018-05-26T13:07:06.917Z,34.08
2018-05-26T13:09:36.490Z,34.07
2018-05-26T13:12:06.345Z,34.15
2018-05-26T13:14:36.226Z,34.19
2018-05-26T13:17:05.529Z,33.97
2018-05-26T13:19:34.757Z,33.77
2018-05-26T13:22:05.997Z,33.85
2018-05-26T13:24:35.196Z,33.81
2018-05-26T13:27:04.514Z,33.70
2018-05-26T13:29:33.817Z,33.70
2018-05-26T13:32:04.804Z,33.63
2018-05-26T13:34:34.370Z,33.47
2018-05-26T13:37:03.458Z,33.16
2018-05-26T13:39:32.560Z,33.23
2018-05-26T13:42:39.626Z,33.20
2018-05-26T13:45:11.295Z,33.47
2018-05-26T13:47:42.999Z,33.25
2018-05-26T13:50:12.230Z,33.38
2018-05-26T13:52:41.659Z,33.52
2018-05-26T13:55:10.700Z,33.68
2018-05-26T13:57:39.981Z,33.38
2018-05-26T14:00:11.787Z,32.88
2018-05-26T14:02:42.248Z,32.70
2018-05-26T14:05:11.413Z,32.88
2018-05-26T14:07:40.529Z,32.99
2018-05-26T14:10:09.693Z,33.22
2018-05-26T14:12:41.248Z,32.96
2018-05-26T14:15:12.698Z,33.13
2018-05-26T14:17:42.228Z,33.16
2018-05-26T14:20:11.308Z,33.25
2018-05-26T14:22:40.372Z,33.22
2018-05-26T14:25:11.928Z,33.12
2018-05-26T14:27:41.589Z,33.01
2018-05-26T14:30:20.576Z,32.75
2018-05-26T14:32:50.129Z,32.86
2018-05-26T14:35:19.510Z,32.88
2018-05-26T14:37:48.738Z,32.87
2018-05-26T14:40:21.268Z,33.02
2018-05-26T14:42:53.001Z,33.20
2018-05-26T14:45:21.990Z,33.05
2018-05-26T14:47:51.224Z,32.93
2018-05-26T14:50:20.302Z,32.73
2018-05-26T14:52:50.144Z,32.55
2018-05-26T14:55:19.396Z,32.55
2018-05-26T14:57:48.772Z,32.52
2018-05-26T15:00:17.869Z,32.53
2018-05-26T15:02:46.928Z,32.43
2018-05-26T15:05:16.103Z,32.40
2018-05-26T15:07:45.233Z,32.43
2018-05-26T15:10:14.305Z,32.29
2018-05-26T15:12:44.212Z,32.27
2018-05-26T15:15:18.318Z,32.34
2018-05-26T15:17:44.991Z,32.34
2018-05-26T15:20:14.054Z,32.26
2018-05-26T15:22:43.094Z,32.02
2018-05-26T15:25:12.230Z,32.00
2018-05-26T15:27:41.380Z,32.02
2018-05-26T15:30:10.743Z,32.07
2018-05-26T15:32:40.465Z,32.02
2018-05-26T15:35:09.751Z,31.86
2018-05-26T15:37:39.253Z,31.87
2018-05-26T15:40:08.437Z,31.68
2018-05-26T15:42:40.811Z,31.49
2018-05-26T15:45:09.709Z,31.37
2018-05-26T15:47:40.214Z,31.22
2018-05-26T15:50:09.563Z,31.14
2018-05-26T15:52:40.587Z,31.03
2018-05-26T15:55:09.605Z,31.03
2018-05-26T15:57:38.611Z,30.91
2018-05-26T16:00:07.729Z,30.73
2018-05-26T16:02:36.814Z,30.51
2018-05-26T16:05:06.619Z,30.66
2018-05-26T16:07:36.066Z,30.68
2018-05-26T16:10:05.260Z,30.79
2018-05-26T16:12:34.285Z,30.76
2018-05-26T16:15:03.394Z,30.71
2018-05-26T16:17:32.597Z,30.81
2018-05-26T16:20:02.089Z,30.82
2018-05-26T16:22:31.226Z,30.78
2018-05-26T16:25:00.333Z,30.84
2018-05-26T16:27:29.494Z,30.87
2018-05-26T16:29:58.761Z,30.95
2018-05-26T16:32:35.514Z,30.98
2018-05-26T16:35:04.632Z,30.83
2018-05-26T16:37:33.915Z,30.87
2018-05-26T16:40:03.278Z,30.93
2018-05-26T16:42:33.456Z,30.83
2018-05-26T16:45:09.212Z,30.78
2018-05-26T16:47:35.210Z,30.82
2018-05-26T16:50:07.533Z,30.80
2018-05-26T16:52:39.697Z,30.72
2018-05-26T16:55:11.278Z,30.63
2018-05-26T16:57:40.421Z,30.66
2018-05-26T17:00:09.494Z,30.60
2018-05-26T17:02:38.538Z,30.56
2018-05-26T17:05:08.508Z,30.62
2018-05-26T17:07:37.920Z,30.55
2018-05-26T17:10:07.032Z,30.44
2018-05-26T17:12:37.076Z,30.29
2018-05-26T17:15:09.312Z,30.18
2018-05-26T17:17:38.526Z,30.12
2018-05-26T17:20:08.197Z,30.11
2018-05-26T17:22:38.473Z,30.15
2018-05-26T17:25:09.564Z,30.13
2018-05-26T17:27:36.930Z,30.04
2018-05-26T17:30:08.045Z,30.08
2018-05-26T17:32:37.149Z,30.07
2018-05-26T17:35:09.216Z,30.02
2018-05-26T17:37:38.492Z,29.93
2018-05-26T17:40:07.407Z,29.86
2018-05-26T17:42:36.704Z,29.87
2018-05-26T17:45:05.916Z,29.93
2018-05-26T17:47:36.464Z,29.86
2018-05-26T17:50:05.683Z,29.95
2018-05-26T17:52:34.673Z,29.80
2018-05-26T17:55:03.992Z,29.77
2018-05-26T17:57:33.385Z,29.75
2018-05-26T18:00:02.264Z,29.68
2018-05-26T18:02:31.286Z,29.64
2018-05-26T18:05:00.356Z,29.58
2018-05-26T18:07:29.479Z,29.48
2018-05-26T18:09:58.784Z,29.35
2018-05-26T18:12:27.814Z,29.28
2018-05-26T18:14:56.931Z,29.24
2018-05-26T18:17:25.905Z,29.33
2018-05-26T18:19:55.312Z,29.18
2018-05-26T18:22:24.822Z,29.23
2018-05-26T18:24:56.959Z,29.05
2018-05-26T18:27:26.282Z,29.13
2018-05-26T18:29:55.423Z,28.84
2018-05-26T18:32:24.683Z,28.76
2018-05-26T18:35:31.674Z,28.69
2018-05-26T18:38:00.880Z,28.48
2018-05-26T18:40:30.823Z,28.41
2018-05-26T18:43:00.654Z,28.27
2018-05-26T18:45:29.794Z,28.25
2018-05-26T18:47:58.968Z,28.37
2018-05-26T18:50:28.100Z,28.11
2018-05-26T18:52:58.914Z,28.06
2018-05-26T18:55:28.678Z,28.01
2018-05-26T18:57:57.716Z,27.93
2018-05-26T19:00:26.863Z,27.80
2018-05-26T19:02:58.409Z,27.67
2018-05-26T19:05:27.564Z,27.53
2018-05-26T19:07:56.663Z,27.45
2018-05-26T19:10:25.688Z,27.35
2018-05-26T19:12:54.713Z,27.46
2018-05-26T19:15:23.813Z,27.23
2018-05-26T19:17:52.997Z,27.12
2018-05-26T19:20:22.791Z,27.03
2018-05-26T19:22:51.684Z,26.92
2018-05-26T19:25:23.227Z,26.76
2018-05-26T19:27:50.161Z,26.70
2018-05-26T19:30:19.265Z,26.68
2018-05-26T19:32:48.451Z,26.61
2018-05-26T19:35:18.675Z,26.41
2018-05-26T19:37:47.798Z,26.34
2018-05-26T19:40:16.853Z,26.23
2018-05-26T19:42:45.996Z,26.09
2018-05-26T19:45:15.105Z,26.00
2018-05-26T19:47:44.275Z,25.88
2018-05-26T19:50:13.356Z,25.82
2018-05-26T19:52:42.648Z,25.73
2018-05-26T19:55:11.767Z,25.66
2018-05-26T19:57:41.096Z,25.54
2018-05-26T20:00:10.569Z,25.47
2018-05-26T20:02:43.193Z,25.34
2018-05-26T20:05:13.535Z,25.28
2018-05-26T20:07:45.910Z,25.23
2018-05-26T20:10:13.339Z,25.23
2018-05-26T20:12:45.403Z,25.20
2018-05-26T20:15:14.493Z,25.40
2018-05-26T20:17:46.944Z,25.17
2018-05-26T20:20:13.560Z,25.04
2018-05-26T20:22:45.544Z,24.95
2018-05-26T20:25:14.658Z,24.92
2018-05-26T20:27:44.534Z,24.83
2018-05-26T20:30:13.603Z,24.74
2018-05-26T20:32:43.604Z,24.70
2018-05-26T20:35:12.441Z,24.92
2018-05-26T20:37:41.267Z,24.65
2018-05-26T20:40:10.106Z,24.59
2018-05-26T20:42:38.953Z,24.55
2018-05-26T20:45:07.841Z,24.43
2018-05-26T20:47:36.688Z,24.44
2018-05-26T20:50:05.595Z,24.39
2018-05-26T20:52:34.370Z,24.26
2018-05-26T20:55:03.200Z,24.55
2018-05-26T20:57:32.031Z,24.31
2018-05-26T21:00:00.885Z,24.20
2018-05-26T21:02:29.711Z,24.42
2018-05-26T21:04:58.548Z,24.18
2018-05-26T21:07:27.359Z,24.16
2018-05-26T21:09:56.200Z,24.02
2018-05-26T21:12:25.024Z,23.98
2018-05-26T21:14:53.864Z,23.95
2018-05-26T21:17:22.687Z,23.96
2018-05-26T21:19:51.539Z,23.95
2018-05-26T21:22:20.368Z,23.84
2018-05-26T21:24:49.322Z,23.79
2018-05-26T21:27:18.141Z,23.71
2018-05-26T21:29:46.999Z,23.93
2018-05-26T21:32:15.839Z,23.65
2018-05-26T21:34:44.673Z,23.92
2018-05-26T21:37:13.599Z,23.56
2018-05-26T21:39:42.401Z,23.56
2018-05-26T21:42:11.249Z,23.52
2018-05-26T21:44:40.069Z,23.49
2018-05-26T21:47:08.980Z,23.52
2018-05-26T21:49:37.780Z,23.42
2018-05-26T21:52:06.633Z,23.35
2018-05-26T21:54:35.445Z,23.30
2018-05-26T21:57:04.279Z,23.25
2018-05-26T21:59:33.109Z,23.21
2018-05-26T22:02:01.946Z,23.21
2018-05-26T22:04:30.785Z,23.22
2018-05-26T22:06:59.625Z,23.22
2018-05-26T22:09:28.466Z,23.22
2018-05-26T22:11:57.370Z,23.19
2018-05-26T22:14:26.316Z,23.19
2018-05-26T22:16:55.088Z,23.17
2018-05-26T22:19:23.920Z,23.20
2018-05-26T22:21:52.732Z,23.21
2018-05-26T22:24:21.584Z,23.17
2018-05-26T22:26:50.404Z,23.19
2018-05-26T22:29:19.246Z,23.18
2018-05-26T22:31:48.076Z,23.15
2018-05-26T22:34:16.903Z,23.12
2018-05-26T22:36:45.746Z,23.07
2018-05-26T22:39:14.598Z,23.10
2018-05-26T22:41:43.430Z,23.05
2018-05-26T22:44:12.293Z,22.99
2018-05-26T22:46:41.107Z,23.08
2018-05-26T22:49:09.983Z,22.92
2018-05-26T22:51:38.826Z,22.85
2018-05-26T22:54:07.677Z,22.87
2018-05-26T22:56:36.556Z,22.85
2018-05-26T22:59:05.445Z,22.84
2018-05-26T23:01:34.334Z,22.76
2018-05-26T23:04:03.189Z,22.75
2018-05-26T23:06:32.024Z,22.81
2018-05-26T23:09:00.869Z,22.66
2018-05-26T23:11:29.707Z,22.65
2018-05-26T23:13:58.543Z,22.62
2018-05-26T23:16:27.393Z,22.56
2018-05-26T23:18:56.215Z,22.68
2018-05-26T23:21:25.063Z,22.54
2018-05-26T23:23:53.916Z,22.48
2018-05-26T23:26:22.734Z,22.42
2018-05-26T23:28:51.566Z,22.34
2018-05-26T23:31:20.422Z,22.33
2018-05-26T23:33:49.277Z,22.30
2018-05-26T23:36:18.109Z,22.25
2018-05-26T23:38:46.954Z,22.26
2018-05-26T23:41:15.811Z,22.20
2018-05-26T23:43:44.653Z,22.20
2018-05-26T23:46:13.519Z,22.08
2018-05-26T23:48:42.339Z,22.06
2018-05-26T23:51:11.173Z,22.07
2018-05-26T23:53:40.023Z,21.98
2018-05-26T23:56:08.897Z,21.97
2018-05-26T23:58:37.738Z,22.12
